createdAt,value
2022-11-16T00:02:21.028Z,100642.31
2022-11-16T00:04:49.072Z,100635.47
2022-11-16T00:07:17.272Z,100630.06
2022-11-16T00:09:45.373Z,100624.25
2022-11-16T00:12:13.859Z,100624.81
2022-11-16T00:14:41.747Z,100629.41
2022-11-16T00:17:09.690Z,100624.94
2022-11-16T00:19:39.140Z,100635.44
2022-11-16T00:22:07.095Z,100623.06
2022-11-16T00:24:35.077Z,100624.47
2022-11-16T00:27:03.030Z,100625.34
2022-11-16T00:29:31.446Z,100616.94
2022-11-16T00:31:59.608Z,100621.94
2022-11-16T00:34:28.666Z,100624.47
2022-11-16T00:36:58.115Z,100628.22
2022-11-16T00:39:26.348Z,100620.97
2022-11-16T00:41:54.283Z,100630.75
2022-11-16T00:44:22.598Z,100629.91
2022-11-16T00:46:50.600Z,100624.50
2022-11-16T00:49:18.527Z,100624.34
2022-11-16T00:51:46.535Z,100614.88
2022-11-16T00:54:15.862Z,100615.94
2022-11-16T00:56:43.954Z,100620.69
2022-11-16T00:59:13.245Z,100628.19
2022-11-16T01:01:43.414Z,100621.50
2022-11-16T01:04:11.532Z,100631.38
2022-11-16T01:06:39.451Z,100628.94
2022-11-16T01:09:07.435Z,100621.34
2022-11-16T01:11:53.951Z,100617.75
2022-11-16T01:14:21.921Z,100624.25
2022-11-16T01:16:50.731Z,100625.25
2022-11-16T01:19:18.931Z,100615.22
2022-11-16T01:21:46.973Z,100621.63
2022-11-16T01:24:15.179Z,100624.94
2022-11-16T01:26:44.574Z,100633.63
2022-11-16T01:29:12.868Z,100625.88
2022-11-16T01:31:45.332Z,100621.72
2022-11-16T01:34:13.482Z,100624.59
2022-11-16T01:36:41.384Z,100613.84
2022-11-16T01:39:09.500Z,100611.72
2022-11-16T01:41:48.225Z,100613.19
2022-11-16T01:44:58.614Z,100612.78
2022-11-16T01:47:26.977Z,100599.25
2022-11-16T01:50:00.688Z,100593.59
2022-11-16T01:52:34.972Z,100594.22
2022-11-16T01:55:04.873Z,100587.53
2022-11-16T01:57:49.084Z,100583.66
2022-11-16T02:00:19.592Z,100579.31
2022-11-16T02:03:01.188Z,100581.25
2022-11-16T02:06:13.151Z,100581.25
2022-11-16T02:09:13.788Z,100570.97
2022-11-16T02:12:17.944Z,100564.91
2022-11-16T02:15:05.352Z,100565.03
2022-11-16T02:17:42.825Z,100555.78
2022-11-16T02:20:55.850Z,100556.09
2022-11-16T02:23:51.704Z,100542.91
2022-11-16T02:26:36.092Z,100544.56
2022-11-16T02:29:19.968Z,100554.00
2022-11-16T02:31:52.107Z,100548.66
2022-11-16T02:34:22.329Z,100538.56
2022-11-16T02:36:54.382Z,100545.72
2022-11-16T02:39:27.240Z,100539.31
2022-11-16T02:41:57.713Z,100531.34
2022-11-16T02:44:34.056Z,100534.63
2022-11-16T02:47:05.914Z,100530.16
2022-11-16T02:49:37.904Z,100524.22
2022-11-16T02:52:06.208Z,100526.44
2022-11-16T02:54:34.120Z,100521.06
2022-11-16T02:57:28.295Z,100519.50
2022-11-16T03:00:00.100Z,100532.69
2022-11-16T03:02:37.511Z,100519.00
2022-11-16T03:05:10.596Z,100537.41
2022-11-16T03:07:49.004Z,100518.34
2022-11-16T03:10:34.289Z,100534.41
2022-11-16T03:13:08.395Z,100536.66
2022-11-16T03:15:42.361Z,100535.94
2022-11-16T03:18:16.710Z,100528.34
2022-11-16T03:20:45.555Z,100536.00
2022-11-16T03:23:14.975Z,100533.00
2022-11-16T03:25:50.353Z,100529.59
2022-11-16T03:28:25.515Z,100533.25
2022-11-16T03:31:02.909Z,100518.84
2022-11-16T03:33:36.739Z,100520.13
2022-11-16T03:36:10.161Z,100520.66
2022-11-16T03:38:41.800Z,100517.84
2022-11-16T03:41:12.099Z,100526.91
2022-11-16T03:43:41.466Z,100521.84
2022-11-16T03:46:11.460Z,100516.53
2022-11-16T03:48:41.897Z,100515.97
2022-11-16T03:51:16.070Z,100517.66
2022-11-16T03:53:44.119Z,100516.47
2022-11-16T03:56:14.585Z,100512.19
2022-11-16T03:58:42.544Z,100515.66
2022-11-16T04:01:12.056Z,100516.03
2022-11-16T04:03:41.276Z,100498.00
2022-11-16T04:06:29.180Z,100506.91
2022-11-16T04:09:14.617Z,100498.25
2022-11-16T04:12:00.906Z,100492.63
2022-11-16T04:14:47.171Z,100493.69
2022-11-16T04:17:38.324Z,100492.63
2022-11-16T04:20:24.656Z,100489.47
2022-11-16T04:23:17.278Z,100488.59
2022-11-16T04:25:47.816Z,100494.88
2022-11-16T04:28:19.704Z,100491.47
2022-11-16T04:31:23.385Z,100491.22
2022-11-16T04:34:22.306Z,100492.69
2022-11-16T04:37:10.839Z,100489.69
2022-11-16T04:39:40.417Z,100488.38
2022-11-16T04:42:14.972Z,100475.50
2022-11-16T04:45:01.912Z,100475.41
2022-11-16T04:47:36.613Z,100472.00
2022-11-16T04:50:07.023Z,100476.00
2022-11-16T04:52:35.240Z,100473.47
2022-11-16T04:55:04.725Z,100487.72
2022-11-16T04:57:33.677Z,100476.16
2022-11-16T05:00:01.703Z,100474.16
2022-11-16T05:02:30.741Z,100471.41
2022-11-16T05:04:59.920Z,100473.50
2022-11-16T05:07:30.969Z,100464.56
2022-11-16T05:10:07.019Z,100463.78
2022-11-16T05:12:36.278Z,100467.72
2022-11-16T05:15:08.138Z,100461.81
2022-11-16T05:17:36.479Z,100471.06
2022-11-16T05:20:29.895Z,100479.22
2022-11-16T05:23:05.063Z,100485.41
2022-11-16T05:25:37.137Z,100469.38
2022-11-16T05:28:08.458Z,100468.25
2022-11-16T05:30:40.757Z,100464.53
2022-11-16T05:33:09.097Z,100471.13
2022-11-16T05:35:41.103Z,100474.53
2022-11-16T05:38:10.736Z,100486.91
2022-11-16T05:40:45.548Z,100486.16
2022-11-16T05:43:13.813Z,100493.38
2022-11-16T05:45:50.214Z,100489.78
2022-11-16T05:48:18.182Z,100488.81
2022-11-16T05:50:46.240Z,100486.25
2022-11-16T05:53:24.917Z,100482.88
2022-11-16T05:55:53.537Z,100498.09
2022-11-16T05:58:22.468Z,100494.91
2022-11-16T06:00:52.152Z,100495.44
2022-11-16T06:03:21.164Z,100489.47
2022-11-16T06:05:53.213Z,100498.19
2022-11-16T06:08:21.440Z,100488.78
2022-11-16T06:10:54.472Z,100491.47
2022-11-16T06:13:22.769Z,100502.47
2022-11-16T06:15:55.501Z,100505.75
2022-11-16T06:18:24.071Z,100497.47
2022-11-16T06:20:52.290Z,100501.09
2022-11-16T06:23:21.881Z,100496.44
2022-11-16T06:25:55.984Z,100497.66
2022-11-16T06:28:26.448Z,100496.69
2022-11-16T06:30:55.666Z,100498.97
2022-11-16T06:33:29.649Z,100509.34
2022-11-16T06:36:02.066Z,100513.09
2022-11-16T06:38:30.171Z,100507.59
2022-11-16T06:41:01.431Z,100515.19
2022-11-16T06:43:31.266Z,100510.66
2022-11-16T06:46:01.288Z,100507.25
2022-11-16T06:48:29.412Z,100511.94
2022-11-16T06:50:57.563Z,100508.59
2022-11-16T06:53:29.253Z,100515.63
2022-11-16T06:56:04.155Z,100508.91
2022-11-16T06:58:35.713Z,100510.63
2022-11-16T07:01:08.229Z,100514.50
2022-11-16T07:03:38.843Z,100512.63
2022-11-16T07:06:09.839Z,100513.84
2022-11-16T07:08:39.617Z,100519.78
2022-11-16T07:11:10.478Z,100525.75
2022-11-16T07:13:39.664Z,100521.91
2022-11-16T07:16:12.405Z,100514.25
2022-11-16T07:18:46.111Z,100515.19
2022-11-16T07:21:16.867Z,100516.00
2022-11-16T07:23:46.079Z,100517.53
2022-11-16T07:26:20.514Z,100516.78
2022-11-16T07:28:54.073Z,100509.56
2022-11-16T07:31:23.739Z,100513.38
2022-11-16T07:34:11.624Z,100515.81
2022-11-16T07:36:45.829Z,100519.25
2022-11-16T07:39:14.302Z,100519.38
2022-11-16T07:41:45.202Z,100529.47
2022-11-16T07:44:26.289Z,100527.88
2022-11-16T07:47:07.632Z,100525.75
2022-11-16T07:49:37.238Z,100528.97
2022-11-16T07:52:11.323Z,100526.41
2022-11-16T07:54:51.519Z,100537.13
2022-11-16T07:57:21.822Z,100532.53
2022-11-16T07:59:50.699Z,100533.22
2022-11-16T08:02:19.038Z,100536.75
2022-11-16T08:04:47.169Z,100532.56
2022-11-16T08:07:16.582Z,100534.09
2022-11-16T08:09:52.046Z,100536.34
2022-11-16T08:12:22.989Z,100534.03
2022-11-16T08:14:50.986Z,100534.53
2022-11-16T08:17:18.940Z,100523.47
2022-11-16T08:19:46.911Z,100528.25
2022-11-16T08:22:17.116Z,100529.47
2022-11-16T08:24:46.499Z,100537.78
2022-11-16T08:27:16.994Z,100529.88
2022-11-16T08:29:49.100Z,100518.31
2022-11-16T08:32:17.183Z,100516.72
2022-11-16T08:34:45.598Z,100523.75
2022-11-16T08:37:14.289Z,100508.72
2022-11-16T08:39:46.243Z,100512.06
2022-11-16T08:42:14.518Z,100518.44
2022-11-16T08:44:46.970Z,100508.38
2022-11-16T08:47:18.123Z,100509.25
2022-11-16T08:49:50.140Z,100500.22
2022-11-16T08:52:20.297Z,100505.59
2022-11-16T08:54:50.549Z,100500.22
2022-11-16T08:57:19.024Z,100493.09
2022-11-16T08:59:50.127Z,100481.56
2022-11-16T09:02:25.349Z,100483.50
2022-11-16T09:04:53.735Z,100482.53
2022-11-16T09:07:22.429Z,100479.31
2022-11-16T09:09:50.339Z,100481.06
2022-11-16T09:12:18.292Z,100476.28
2022-11-16T09:14:46.253Z,100479.25
2022-11-16T09:17:18.810Z,100482.56
2022-11-16T09:19:51.293Z,100471.63
2022-11-16T09:22:19.375Z,100474.59
2022-11-16T09:24:47.403Z,100457.69
2022-11-16T09:27:16.510Z,100467.06
2022-11-16T09:29:44.406Z,100467.34
2022-11-16T09:32:12.328Z,100467.22
2022-11-16T09:34:40.257Z,100459.56
2022-11-16T09:37:09.873Z,100455.19
2022-11-16T09:39:37.782Z,100463.63
2022-11-16T09:42:26.707Z,100459.44
2022-11-16T09:45:04.274Z,100455.28
2022-11-16T09:47:50.189Z,100460.06
2022-11-16T09:50:37.179Z,100469.25
2022-11-16T09:53:23.658Z,100464.34
2022-11-16T09:55:54.348Z,100445.50
2022-11-16T09:58:28.031Z,100458.72
2022-11-16T10:01:01.147Z,100449.25
2022-11-16T10:03:33.379Z,100453.00
2022-11-16T10:06:04.431Z,100445.25
2022-11-16T10:08:44.271Z,100447.84
2022-11-16T10:11:38.142Z,100460.41
2022-11-16T10:14:14.862Z,100450.50
2022-11-16T10:16:50.868Z,100450.00
2022-11-16T10:19:29.002Z,100445.22
2022-11-16T10:22:04.978Z,100446.00
2022-11-16T10:24:50.968Z,100434.97
2022-11-16T10:27:45.191Z,100433.72
2022-11-16T10:30:15.939Z,100421.25
2022-11-16T10:32:51.150Z,100424.00
2022-11-16T10:35:25.328Z,100419.81
2022-11-16T10:37:53.506Z,100410.63
2022-11-16T10:40:25.004Z,100410.03
2022-11-16T10:43:01.316Z,100411.31
2022-11-16T10:45:36.509Z,100415.13
2022-11-16T10:48:16.840Z,100414.84
2022-11-16T10:50:48.094Z,100424.88
2022-11-16T10:53:26.437Z,100427.47
2022-11-16T10:56:12.099Z,100418.94
2022-11-16T10:58:52.331Z,100426.78
2022-11-16T11:01:38.401Z,100419.38
2022-11-16T11:04:21.990Z,100438.41
2022-11-16T11:06:51.431Z,100431.53
2022-11-16T11:09:28.950Z,100424.06
2022-11-16T11:12:31.367Z,100428.44
2022-11-16T11:15:06.826Z,100415.47
2022-11-16T11:17:36.475Z,100409.56
2022-11-16T11:20:06.652Z,100406.22
2022-11-16T11:22:42.864Z,100406.78
2022-11-16T11:25:22.888Z,100410.78
2022-11-16T11:27:53.898Z,100409.72
2022-11-16T11:30:23.302Z,100408.19
2022-11-16T11:32:52.928Z,100419.94
2022-11-16T11:35:25.967Z,100425.75
2022-11-16T11:37:57.124Z,100420.38
2022-11-16T11:40:26.416Z,100413.75
2022-11-16T11:42:59.373Z,100419.38
2022-11-16T11:45:35.577Z,100435.16
2022-11-16T11:48:07.680Z,100415.63
2022-11-16T11:50:46.389Z,100426.66
2022-11-16T11:53:25.206Z,100428.59
2022-11-16T11:55:58.150Z,100416.13
2022-11-16T11:58:32.009Z,100426.47
2022-11-16T12:01:25.874Z,100419.81
2022-11-16T12:04:26.258Z,100422.88
2022-11-16T12:07:02.509Z,100419.38
2022-11-16T12:09:37.637Z,100416.34
2022-11-16T12:12:23.124Z,100416.44
2022-11-16T12:15:23.473Z,100429.56
2022-11-16T12:17:59.650Z,100416.41
2022-11-16T12:20:35.356Z,100418.00
2022-11-16T12:23:28.556Z,100410.63
2022-11-16T12:26:03.726Z,100417.19
2022-11-16T12:28:52.626Z,100422.59
2022-11-16T12:31:43.847Z,100420.84
2022-11-16T12:34:21.286Z,100422.88
2022-11-16T12:36:57.005Z,100419.63
2022-11-16T12:39:27.511Z,100417.03
2022-11-16T12:42:24.983Z,100427.34
2022-11-16T12:45:06.353Z,100412.41
2022-11-16T12:47:43.893Z,100412.91
2022-11-16T12:50:36.596Z,100421.19
2022-11-16T12:53:20.162Z,100415.22
2022-11-16T12:55:51.507Z,100417.03
2022-11-16T12:58:28.269Z,100417.13
2022-11-16T13:01:04.641Z,100412.41
2022-11-16T13:03:40.301Z,100425.88
2022-11-16T13:06:12.866Z,100421.75
2022-11-16T13:08:53.503Z,100415.44
2022-11-16T13:11:24.774Z,100408.72
2022-11-16T13:13:57.944Z,100420.22
2022-11-16T13:16:25.901Z,100403.69
2022-11-16T13:18:55.786Z,100412.44
2022-11-16T13:21:34.060Z,100407.53
2022-11-16T13:24:13.990Z,100391.91
2022-11-16T13:26:49.302Z,100398.34
2022-11-16T13:29:30.566Z,100397.38
2022-11-16T13:32:05.774Z,100387.50
2022-11-16T13:34:38.572Z,100389.78
2022-11-16T13:37:48.565Z,100387.66
2022-11-16T13:40:28.781Z,100387.09
2022-11-16T13:43:08.337Z,100380.47
2022-11-16T13:45:40.534Z,100385.22
2022-11-16T13:48:18.451Z,100386.16
2022-11-16T13:50:53.060Z,100381.13
2022-11-16T13:56:21.816Z,100394.81
2022-11-16T13:58:55.694Z,100384.78
2022-11-16T14:01:23.878Z,100390.19
2022-11-16T14:03:53.331Z,100384.41
2022-11-16T14:06:58.163Z,100392.09
2022-11-16T14:09:44.996Z,100388.41
2022-11-16T14:12:52.911Z,100382.84
2022-11-16T14:15:23.376Z,100381.47
2022-11-16T14:17:59.623Z,100381.47
2022-11-16T14:20:57.101Z,100377.47
2022-11-16T14:23:37.112Z,100382.28
2022-11-16T14:26:14.464Z,100389.38
2022-11-16T14:28:55.317Z,100389.34
2022-11-16T14:31:25.625Z,100393.69
2022-11-16T14:33:56.291Z,100394.34
2022-11-16T14:36:41.215Z,100383.69
2022-11-16T14:39:18.665Z,100373.75
2022-11-16T14:41:48.084Z,100383.25
2022-11-16T14:44:19.623Z,100384.88
2022-11-16T14:46:47.812Z,100384.88
2022-11-16T14:49:20.389Z,100378.50
2022-11-16T14:51:52.350Z,100372.44
2022-11-16T14:54:29.582Z,100382.66
2022-11-16T14:57:00.045Z,100373.81
2022-11-16T14:59:28.897Z,100373.69
2022-11-16T15:01:57.310Z,100378.16
2022-11-16T15:04:27.155Z,100379.88
2022-11-16T15:06:58.957Z,100380.84
2022-11-16T15:09:31.736Z,100382.72
2022-11-16T15:12:19.955Z,100367.88
2022-11-16T15:14:51.413Z,100378.34
2022-11-16T15:17:22.131Z,100370.03
2022-11-16T15:19:57.085Z,100381.84
2022-11-16T15:22:27.176Z,100377.06
2022-11-16T15:24:58.115Z,100374.91
2022-11-16T15:27:36.831Z,100374.66
2022-11-16T15:30:14.568Z,100369.06
2022-11-16T15:32:44.041Z,100372.16
2022-11-16T15:35:19.920Z,100371.69
2022-11-16T15:37:48.000Z,100370.69
2022-11-16T15:40:17.689Z,100359.03
2022-11-16T15:42:45.808Z,100365.13
2022-11-16T15:45:23.003Z,100367.09
2022-11-16T15:47:53.817Z,100376.72
2022-11-16T15:50:24.280Z,100370.00
2022-11-16T15:52:55.226Z,100368.00
2022-11-16T15:55:32.697Z,100370.53
2022-11-16T15:58:22.288Z,100362.28
2022-11-16T16:00:50.631Z,100357.94
2022-11-16T16:03:23.010Z,100362.69
2022-11-16T16:05:51.385Z,100352.19
2022-11-16T16:08:34.366Z,100351.16
2022-11-16T16:11:06.628Z,100354.81
2022-11-16T16:13:37.652Z,100351.78
2022-11-16T16:16:27.350Z,100354.75
2022-11-16T16:19:00.774Z,100358.41
2022-11-16T16:21:42.539Z,100360.75
2022-11-16T16:24:12.928Z,100353.41
2022-11-16T16:26:42.257Z,100362.50
2022-11-16T16:29:10.180Z,100356.66
2022-11-16T16:31:38.145Z,100369.00
2022-11-16T16:34:12.572Z,100356.69
2022-11-16T16:36:40.536Z,100360.69
2022-11-16T16:39:08.514Z,100362.44
2022-11-16T16:41:36.511Z,100361.88
2022-11-16T16:44:14.721Z,100364.41
2022-11-16T16:46:42.857Z,100363.69
2022-11-16T16:49:11.687Z,100353.31
2022-11-16T16:51:39.651Z,100353.75
2022-11-16T16:54:07.990Z,100364.63
2022-11-16T16:56:35.958Z,100359.69
2022-11-16T16:59:04.076Z,100351.22
2022-11-16T17:01:33.549Z,100350.84
2022-11-16T17:04:01.514Z,100364.84
2022-11-16T17:06:30.650Z,100359.88
2022-11-16T17:08:58.642Z,100358.00
2022-11-16T17:11:26.909Z,100366.78
2022-11-16T17:13:54.867Z,100354.66
2022-11-16T17:16:22.885Z,100360.75
2022-11-16T17:18:56.689Z,100359.25
2022-11-16T17:21:24.658Z,100347.38
2022-11-16T17:23:52.587Z,100355.84
2022-11-16T17:26:20.968Z,100345.88
2022-11-16T17:28:49.147Z,100353.72
2022-11-16T17:31:17.484Z,100360.09
2022-11-16T17:33:45.397Z,100366.13
2022-11-16T17:36:15.103Z,100358.34
2022-11-16T17:38:43.172Z,100381.09
2022-11-16T17:41:13.723Z,100376.41
2022-11-16T17:43:42.844Z,100373.41
2022-11-16T17:46:12.665Z,100376.09
2022-11-16T17:48:42.234Z,100371.41
2022-11-16T17:51:10.597Z,100362.88
2022-11-16T17:53:40.776Z,100378.94
2022-11-16T17:56:09.132Z,100371.56
2022-11-16T17:58:37.045Z,100376.72
2022-11-16T18:01:05.208Z,100379.22
2022-11-16T18:03:33.549Z,100375.50
2022-11-16T18:06:04.464Z,100378.66
2022-11-16T18:08:33.019Z,100377.00
2022-11-16T18:11:06.717Z,100382.22
2022-11-16T18:13:35.551Z,100371.34
2022-11-16T18:16:05.688Z,100380.13
2022-11-16T18:18:34.439Z,100373.38
2022-11-16T18:21:02.909Z,100367.00
2022-11-16T18:23:30.957Z,100370.06
2022-11-16T18:25:58.921Z,100373.28
2022-11-16T18:28:30.115Z,100375.28
2022-11-16T18:31:04.017Z,100392.19
2022-11-16T18:33:32.466Z,100373.53
2022-11-16T18:36:00.789Z,100382.25
2022-11-16T18:38:28.727Z,100378.94
2022-11-16T18:41:16.628Z,100375.94
2022-11-16T18:43:50.982Z,100384.06
2022-11-16T18:46:19.157Z,100380.28
2022-11-16T18:48:47.806Z,100371.53
2022-11-16T18:51:16.731Z,100361.91
2022-11-16T18:53:45.045Z,100357.34
2022-11-16T18:56:13.030Z,100363.19
2022-11-16T18:58:50.987Z,100366.72
2022-11-16T19:01:24.595Z,100355.53
2022-11-16T19:03:53.256Z,100368.13
2022-11-16T19:06:22.261Z,100359.31
2022-11-16T19:08:56.399Z,100360.50
2022-11-16T19:11:25.549Z,100373.31
2022-11-16T19:13:55.229Z,100362.31
2022-11-16T19:16:25.869Z,100362.75
2022-11-16T19:18:54.095Z,100359.28
2022-11-16T19:21:23.054Z,100368.22
2022-11-16T19:23:52.997Z,100362.78
2022-11-16T19:26:23.578Z,100363.66
2022-11-16T19:28:55.284Z,100379.56
2022-11-16T19:31:26.533Z,100364.59
2022-11-16T19:33:56.031Z,100371.84
2022-11-16T19:36:25.727Z,100372.00
2022-11-16T19:38:53.851Z,100376.97
2022-11-16T19:41:22.938Z,100373.75
2022-11-16T19:43:52.572Z,100370.03
2022-11-16T19:46:21.549Z,100368.69
2022-11-16T19:48:51.242Z,100368.88
2022-11-16T19:51:21.442Z,100374.34
2022-11-16T19:53:49.668Z,100374.94
2022-11-16T19:56:19.903Z,100384.56
2022-11-16T19:58:48.259Z,100391.47
2022-11-16T20:01:18.275Z,100388.28
2022-11-16T20:03:47.062Z,100383.38
2022-11-16T20:06:18.988Z,100379.06
2022-11-16T20:08:49.551Z,100380.94
2022-11-16T20:11:20.448Z,100382.75
2022-11-16T20:13:48.960Z,100388.94
2022-11-16T20:16:18.239Z,100379.56
2022-11-16T20:18:47.551Z,100378.22
2022-11-16T20:21:20.667Z,100380.50
2022-11-16T20:23:48.785Z,100385.53
2022-11-16T20:26:16.931Z,100381.69
2022-11-16T20:28:45.309Z,100391.31
2022-11-16T20:31:15.249Z,100393.50
2022-11-16T20:33:43.939Z,100388.25
2022-11-16T20:36:12.907Z,100386.38
2022-11-16T20:38:42.306Z,100397.03
2022-11-16T20:41:11.791Z,100403.22
2022-11-16T20:43:40.482Z,100400.75
2022-11-16T20:46:09.579Z,100402.72
2022-11-16T20:48:38.247Z,100401.69
2022-11-16T20:51:07.340Z,100390.78
2022-11-16T20:53:35.900Z,100409.72
2022-11-16T20:56:07.626Z,100396.97
2022-11-16T20:58:36.170Z,100392.47
2022-11-16T21:01:05.169Z,100392.47
2022-11-16T21:03:33.702Z,100402.81
2022-11-16T21:06:01.951Z,100398.22
2022-11-16T21:08:30.156Z,100400.19
2022-11-16T21:10:58.380Z,100398.63
2022-11-16T21:13:45.214Z,100399.66
2022-11-16T21:16:15.381Z,100398.03
2022-11-16T21:18:43.446Z,100391.91
2022-11-16T21:21:13.320Z,100400.50
2022-11-16T21:23:45.039Z,100399.31
2022-11-16T21:26:15.756Z,100389.06
2022-11-16T21:28:45.533Z,100407.53
2022-11-16T21:31:15.379Z,100404.75
2022-11-16T21:33:44.957Z,100392.22
2022-11-16T21:36:14.782Z,100393.69
2022-11-16T21:38:43.201Z,100411.38
2022-11-16T21:41:12.034Z,100393.88
2022-11-16T21:43:40.847Z,100393.69
2022-11-16T21:46:12.984Z,100415.81
2022-11-16T21:48:41.555Z,100407.72
2022-11-16T21:51:10.836Z,100410.09
2022-11-16T21:53:39.440Z,100413.81
2022-11-16T21:56:08.836Z,100409.03
2022-11-16T21:58:36.848Z,100417.34
2022-11-16T22:01:04.871Z,100411.13
2022-11-16T22:03:34.589Z,100399.34
2022-11-16T22:06:22.427Z,100397.63
2022-11-16T22:08:50.928Z,100387.00
2022-11-16T22:11:22.107Z,100398.91
2022-11-16T22:13:51.113Z,100401.16
2022-11-16T22:16:20.952Z,100391.13
2022-11-16T22:18:50.932Z,100395.38
2022-11-16T22:21:18.937Z,100400.16
2022-11-16T22:23:46.940Z,100400.72
2022-11-16T22:26:15.316Z,100395.50
2022-11-16T22:28:43.526Z,100421.22
2022-11-16T22:31:13.467Z,100413.81
2022-11-16T22:33:42.017Z,100395.09
2022-11-16T22:36:11.966Z,100392.41
2022-11-16T22:38:40.075Z,100415.50
2022-11-16T22:41:08.169Z,100430.84
2022-11-16T22:43:37.425Z,100413.53
2022-11-16T22:46:06.917Z,100396.69
2022-11-16T22:48:37.099Z,100390.88
2022-11-16T22:51:07.382Z,100393.38
2022-11-16T22:53:37.070Z,100388.16
2022-11-16T22:56:07.478Z,100393.66
2022-11-16T22:58:35.794Z,100389.56
2022-11-16T23:01:04.296Z,100388.59
2022-11-16T23:03:32.928Z,100384.00
2022-11-16T23:06:01.050Z,100392.00
2022-11-16T23:08:29.016Z,100371.75
2022-11-16T23:11:21.000Z,100372.00
2022-11-16T23:14:07.498Z,100381.47
2022-11-16T23:16:35.799Z,100385.00
2022-11-16T23:19:24.202Z,100380.53
2022-11-16T23:22:09.723Z,100377.97
2022-11-16T23:24:55.385Z,100369.00
2022-11-16T23:27:31.406Z,100367.34
2022-11-16T23:30:01.481Z,100362.88
2022-11-16T23:32:30.703Z,100364.88
2022-11-16T23:34:58.687Z,100360.09
2022-11-16T23:37:26.842Z,100354.22
2022-11-16T23:39:54.798Z,100378.22
2022-11-16T23:42:41.596Z,100371.09
2022-11-16T23:45:10.256Z,100375.91
2022-11-16T23:47:38.200Z,100359.84
2022-11-16T23:50:06.797Z,100354.34
2022-11-16T23:52:34.772Z,100356.69
2022-11-16T23:55:02.694Z,100353.06
2022-11-16T23:57:32.131Z,100345.94
